Time;durP1;ratioP1;P1;durP2;ratioP2;P2;SDS_P1;SDS_P2;PMS_P1;PMS_P2;Temp;Humidity;BMP_temperature;BMP_pressure;BME280_temperature;BME280_humidity;BME280_pressure;Samples;Min_cycle;Max_cycle;Signal;HPM_P1;HPM_P2
2023/12/20 00:01:23;;;;;;;8.50;5.43;;;;;;;6.53;100.00;100116.19;6199801;22;20099;-89
2023/12/20 00:03:51;;;;;;;6.63;4.33;;;;;;;6.51;100.00;100117.13;6200293;22;20095;-90
2023/12/20 00:06:19;;;;;;;8.30;5.10;;;;;;;6.64;100.00;100121.31;6200489;22;20090;-88
2023/12/20 00:08:47;;;;;;;7.37;5.23;;;;;;;6.55;100.00;100110.91;6224767;22;20130;-89
2023/12/20 00:11:15;;;;;;;7.40;4.80;;;;;;;6.63;100.00;100120.44;6199801;22;20099;-89
2023/12/20 00:13:51;;;;;;;7.43;4.70;;;;;;;6.64;100.00;100124.81;6199720;22;20020;-90
2023/12/20 00:16:22;;;;;;;9.07;4.80;;;;;;;6.55;100.00;100118.78;6201322;22;20015;-89
2023/12/20 00:18:52;;;;;;;6.77;4.13;;;;;;;6.53;100.00;100120.56;6199965;22;20522;-89
2023/12/20 00:21:20;;;;;;;7.00;4.13;;;;;;;6.45;100.00;100129.41;6225198;22;20515;-92
2023/12/20 00:23:48;;;;;;;5.70;3.73;;;;;;;6.52;100.00;100129.34;6199670;22;20023;-89
2023/12/20 00:26:16;;;;;;;5.30;3.47;;;;;;;6.45;100.00;100116.28;6199648;22;20438;-89
2023/12/20 00:28:43;;;;;;;5.80;3.80;;;;;;;6.55;100.00;100108.31;6224799;22;20023;-89
2023/12/20 00:31:11;;;;;;;6.30;3.57;;;;;;;6.47;100.00;100116.25;6199916;22;20106;-91
2023/12/20 00:33:43;;;;;;;6.33;4.27;;;;;;;6.51;100.00;100111.88;6223739;22;20129;-91
2023/12/20 00:36:11;;;;;;;6.40;4.00;;;;;;;6.46;100.00;100104.91;6200513;22;20388;-89
2023/12/20 00:38:40;;;;;;;6.57;3.70;;;;;;;6.44;100.00;100104.06;6225090;22;20086;-88
2023/12/20 00:41:08;;;;;;;5.27;3.03;;;;;;;6.36;100.00;100100.66;6199557;22;20494;-89
2023/12/20 00:43:36;;;;;;;4.47;3.20;;;;;;;6.40;100.00;100109.38;6199705;22;20103;-89
2023/12/20 00:46:05;;;;;;;4.33;2.10;;;;;;;6.37;100.00;100106.78;6199926;22;20179;-89
2023/12/20 00:48:33;;;;;;;7.43;2.50;;;;;;;6.35;100.00;100112.06;6199669;22;20162;-89
2023/12/20 00:51:01;;;;;;;3.63;2.20;;;;;;;6.24;100.00;100099.97;6199395;22;20083;-89
2023/12/20 00:53:29;;;;;;;3.67;1.90;;;;;;;6.30;100.00;100110.34;6199350;22;20107;-89
2023/12/20 00:55:58;;;;;;;3.23;1.73;;;;;;;6.30;100.00;100105.09;6199665;22;20087;-89
2023/12/20 00:58:27;;;;;;;2.93;1.90;;;;;;;6.19;100.00;100103.50;6199829;22;20090;-89
2023/12/20 01:00:55;;;;;;;3.23;1.80;;;;;;;6.18;100.00;100108.75;6199661;22;20103;-89
2023/12/20 01:03:24;;;;;;;2.30;1.50;;;;;;;6.12;100.00;100106.19;6199240;22;20083;-90
2023/12/20 01:05:52;;;;;;;3.00;1.60;;;;;;;6.20;100.00;100110.47;6199617;22;20094;-89
2023/12/20 01:08:21;;;;;;;2.23;1.57;;;;;;;6.14;100.00;100112.31;6200182;22;20086;-89
2023/12/20 01:10:49;;;;;;;2.17;1.27;;;;;;;6.05;100.00;100112.38;6199653;22;20086;-89
2023/12/20 01:13:17;;;;;;;2.63;1.33;;;;;;;6.03;100.00;100112.41;6200655;22;20530;-89
2023/12/20 01:15:45;;;;;;;2.50;1.60;;;;;;;6.03;100.00;100117.66;6201967;22;20094;-90
2023/12/20 01:18:13;;;;;;;2.77;1.50;;;;;;;5.99;100.00;100102.84;6201956;22;20094;-90
2023/12/20 01:20:42;;;;;;;3.10;1.70;;;;;;;6.12;100.00;100099.19;6201478;22;20090;-89
2023/12/20 01:23:10;;;;;;;2.10;1.23;;;;;;;6.02;100.00;100113.31;6201677;22;20103;-89
2023/12/20 01:25:41;;;;;;;3.60;1.53;;;;;;;5.98;100.00;100095.88;6202857;22;20095;-89
2023/12/20 01:28:09;;;;;;;1.73;1.20;;;;;;;5.98;100.00;100101.13;6201648;22;20098;-89
2023/12/20 01:30:40;;;;;;;2.30;1.23;;;;;;;6.10;100.00;100095.72;6201288;22;20096;-89
2023/12/20 01:33:11;;;;;;;1.97;1.20;;;;;;;6.02;100.00;100097.56;6201854;22;20098;-89
2023/12/20 01:35:39;;;;;;;2.23;0.97;;;;;;;5.89;100.00;100098.56;6201468;22;20095;-90
2023/12/20 01:38:09;;;;;;;2.00;1.10;;;;;;;5.81;100.00;100098.66;6201203;22;20102;-89
2023/12/20 01:40:37;;;;;;;2.70;0.90;;;;;;;5.80;100.00;100096.00;6225976;22;20149;-89
2023/12/20 01:43:09;;;;;;;2.60;1.07;;;;;;;5.83;100.00;100102.09;6201614;22;20424;-90
2023/12/20 01:45:37;;;;;;;1.17;0.70;;;;;;;5.73;100.00;100104.84;6201336;22;20111;-89
2023/12/20 01:48:06;;;;;;;1.47;0.97;;;;;;;5.64;100.00;100105.81;6200854;22;20098;-90
2023/12/20 01:50:36;;;;;;;2.67;1.00;;;;;;;5.64;100.00;100106.66;6201125;22;20091;-89
2023/12/20 01:53:06;;;;;;;1.93;1.30;;;;;;;5.65;100.00;100108.41;6201237;22;20016;-89
2023/12/20 01:55:35;;;;;;;1.87;0.80;;;;;;;5.53;100.00;100108.50;6201663;22;20106;-89
2023/12/20 01:58:03;;;;;;;2.30;0.90;;;;;;;5.44;100.00;100092.00;6200985;22;20071;-90
2023/12/20 02:00:31;;;;;;;2.17;0.80;;;;;;;5.46;100.00;100098.09;6200976;22;20122;-89
2023/12/20 02:03:02;;;;;;;1.57;0.90;;;;;;;5.42;100.00;100104.25;6200860;22;20087;-90
2023/12/20 02:05:31;;;;;;;1.33;0.90;;;;;;;5.45;100.00;100099.84;6201157;22;20094;-90
2023/12/20 02:07:59;;;;;;;1.90;0.90;;;;;;;5.42;100.00;100105.09;6201203;22;20090;-89
2023/12/20 02:10:27;;;;;;;1.50;0.70;;;;;;;5.32;100.00;100103.47;6199700;22;20098;-91
2023/12/20 02:12:57;;;;;;;0.70;0.60;;;;;;;5.30;100.00;100105.22;6199113;22;20094;-91
2023/12/20 02:15:24;;;;;;;3.77;1.20;;;;;;;5.44;100.00;100102.47;6199056;22;20417;-91
2023/12/20 02:17:52;;;;;;;3.07;1.30;;;;;;;5.34;100.00;100097.31;6199545;22;20090;-90
2023/12/20 02:20:19;;;;;;;2.63;1.30;;;;;;;5.36;100.00;100092.06;6199447;22;20098;-91
2023/12/20 02:22:47;;;;;;;1.10;0.80;;;;;;;5.36;100.00;100099.91;6199404;22;20114;-91
2023/12/20 02:25:14;;;;;;;2.47;1.10;;;;;;;5.27;100.00;100100.84;6198101;22;20026;-92
2023/12/20 02:27:41;;;;;;;2.17;0.70;;;;;;;5.27;100.00;100100.84;6197593;22;20083;-91
2023/12/20 02:30:11;;;;;;;1.93;1.00;;;;;;;5.26;100.00;100103.50;6199289;22;20098;-92
2023/12/20 02:32:38;;;;;;;2.33;1.00;;;;;;;5.34;100.00;100106.94;6198780;22;20106;-92
2023/12/20 02:35:08;;;;;;;1.77;0.73;;;;;;;5.25;100.00;100101.75;6199119;22;20526;-91
2023/12/20 02:37:39;;;;;;;2.77;1.40;;;;;;;5.20;100.00;100108.78;6199041;22;20098;-92
2023/12/20 02:40:07;;;;;;;2.57;0.80;;;;;;;5.23;100.00;100106.16;6199143;22;20071;-93
2023/12/20 02:42:34;;;;;;;2.00;0.70;;;;;;;5.13;100.00;100110.59;6198275;22;20106;-92
2023/12/20 02:45:01;;;;;;;1.57;0.77;;;;;;;5.15;100.00;100110.56;6199005;22;20157;-92
2023/12/20 02:47:29;;;;;;;1.63;0.70;;;;;;;5.08;100.00;100105.38;6224618;22;20095;-91
2023/12/20 02:49:56;;;;;;;2.73;0.80;;;;;;;5.06;100.00;100104.53;6199593;22;20020;-92
2023/12/20 02:52:24;;;;;;;2.93;0.97;;;;;;;5.02;100.00;100102.78;6199386;22;20094;-90
2023/12/20 02:54:51;;;;;;;1.50;0.90;;;;;;;5.06;100.00;100107.13;6223451;22;20095;-90
2023/12/20 02:57:18;;;;;;;1.30;0.80;;;;;;;5.04;100.00;100108.00;6198717;22;20099;-91
2023/12/20 02:59:46;;;;;;;3.07;0.80;;;;;;;4.96;100.00;100110.72;6198474;22;20098;-90
2023/12/20 03:02:13;;;;;;;2.43;1.00;;;;;;;4.96;100.00;100107.19;6198874;22;20134;-91
2023/12/20 03:04:40;;;;;;;2.73;1.00;;;;;;;4.92;100.00;100098.50;6199298;22;20518;-91
2023/12/20 03:07:08;;;;;;;3.43;1.50;;;;;;;5.04;100.00;100093.19;6197926;22;20096;-89
2023/12/20 03:09:35;;;;;;;2.40;1.20;;;;;;;4.98;100.00;100100.22;6223661;22;20094;-91
2023/12/20 03:12:22;;;;;;;1.83;1.17;;;;;;;5.06;100.00;100093.19;6206715;22;20176;-90
2023/12/20 03:14:49;;;;;;;3.33;1.30;;;;;;;4.99;100.00;100100.19;6198433;22;20090;-91
2023/12/20 03:17:16;;;;;;;4.00;1.50;;;;;;;4.98;100.00;100087.13;6198136;22;20115;-91
2023/12/20 03:19:44;;;;;;;3.33;1.50;;;;;;;4.97;100.00;100093.25;6198900;22;20094;-92
2023/12/20 03:22:11;;;;;;;4.30;1.70;;;;;;;4.96;100.00;100100.22;6198352;22;20091;-91
2023/12/20 03:24:38;;;;;;;3.87;1.30;;;;;;;4.85;100.00;100086.31;6198164;22;20098;-89
2023/12/20 03:27:05;;;;;;;3.70;1.40;;;;;;;4.84;100.00;100083.72;6195377;22;20071;-90
2023/12/20 03:29:32;;;;;;;2.23;1.33;;;;;;;4.70;100.00;100079.44;6197814;22;20141;-90
2023/12/20 03:32:00;;;;;;;2.70;1.30;;;;;;;4.67;100.00;100079.47;6223224;22;20103;-92
2023/12/20 03:34:27;;;;;;;5.27;1.53;;;;;;;4.68;100.00;100082.94;6198664;22;20128;-91
2023/12/20 03:36:54;;;;;;;3.23;1.60;;;;;;;4.70;100.00;100095.13;6222782;22;20103;-92
2023/12/20 03:39:21;;;;;;;3.80;1.70;;;;;;;4.73;100.00;100096.88;6222493;22;20391;-91
2023/12/20 03:41:48;;;;;;;2.63;1.50;;;;;;;4.70;100.00;100089.03;6197413;22;20116;-90
2023/12/20 03:44:15;;;;;;;3.23;1.40;;;;;;;4.69;100.00;100085.56;6198227;22;20102;-91
2023/12/20 03:46:42;;;;;;;2.97;1.83;;;;;;;4.73;100.00;100075.94;6197852;22;20511;-91
2023/12/20 03:49:09;;;;;;;4.23;1.57;;;;;;;4.68;100.00;100075.09;6222230;22;20162;-91
2023/12/20 03:51:40;;;;;;;3.03;1.30;;;;;;;4.60;100.00;100069.91;6199162;22;20090;-91
2023/12/20 03:54:07;;;;;;;3.80;1.77;;;;;;;4.59;100.00;100069.91;6198211;22;20095;-91
2023/12/20 03:56:34;;;;;;;5.50;1.70;;;;;;;4.59;100.00;100067.31;6223551;22;20095;-91
2023/12/20 03:59:03;;;;;;;4.70;1.60;;;;;;;4.57;100.00;100075.16;6197878;22;20082;-91
2023/12/20 04:01:30;;;;;;;5.47;1.77;;;;;;;4.45;100.00;100068.22;6197881;22;20146;-91
2023/12/20 04:03:57;;;;;;;4.53;1.60;;;;;;;4.46;100.00;100059.53;6197945;22;20094;-91
2023/12/20 04:06:25;;;;;;;4.03;1.40;;;;;;;4.39;100.00;100055.22;6198073;22;20027;-89
2023/12/20 04:08:54;;;;;;;3.60;1.47;;;;;;;4.36;100.00;100060.44;6198134;22;20526;-92
2023/12/20 04:11:22;;;;;;;2.60;1.43;;;;;;;4.29;100.00;100050.91;6197659;22;20099;-91
2023/12/20 04:13:51;;;;;;;5.03;1.80;;;;;;;4.36;100.00;100051.72;6198757;22;20019;-90
2023/12/20 04:16:21;;;;;;;3.27;1.67;;;;;;;4.27;100.00;100042.19;6197747;22;20098;-91
2023/12/20 04:18:48;;;;;;;4.13;1.60;;;;;;;4.24;100.00;100047.44;6197515;22;20086;-91
2023/12/20 04:21:15;;;;;;;6.67;3.13;;;;;;;4.26;100.00;100050.03;6222612;22;20546;-90
2023/12/20 04:23:42;;;;;;;2.93;1.87;;;;;;;4.15;100.00;100055.31;6197824;22;20103;-91
2023/12/20 04:26:10;;;;;;;3.50;1.97;;;;;;;4.07;100.00;100060.56;6197241;22;20565;-90
2023/12/20 04:28:37;;;;;;;4.07;1.80;;;;;;;4.04;100.00;100062.34;6222228;22;20597;-89
2023/12/20 04:31:04;;;;;;;4.33;1.70;;;;;;;3.99;100.00;100066.72;6197654;22;20091;-92
2023/12/20 04:33:34;;;;;;;8.67;3.27;;;;;;;4.04;100.00;100063.22;6198737;22;20090;-90
2023/12/20 04:36:02;;;;;;;19.30;10.20;;;;;;;4.13;100.00;100057.09;6197300;22;20416;-89
2023/12/20 04:38:29;;;;;;;8.00;4.70;;;;;;;4.13;100.00;100062.31;6222918;22;20087;-91
2023/12/20 04:40:56;;;;;;;9.67;3.53;;;;;;;4.11;100.00;100061.41;6197008;22;20090;-90
2023/12/20 04:43:24;;;;;;;8.57;2.40;;;;;;;4.11;100.00;100059.69;6198002;22;20098;-91
2023/12/20 04:45:51;;;;;;;6.20;2.90;;;;;;;4.16;100.00;100063.16;6197280;22;20098;-90
2023/12/20 04:48:22;;;;;;;8.00;2.17;;;;;;;4.11;100.00;100057.06;6200865;22;20098;-89
2023/12/20 04:50:52;;;;;;;7.13;2.73;;;;;;;4.16;100.00;100046.59;6215129;22;20096;-91
2023/12/20 04:53:19;;;;;;;5.10;2.30;;;;;;;4.23;100.00;100041.34;6240673;22;20026;-92
2023/12/20 04:55:46;;;;;;;6.77;2.47;;;;;;;4.08;100.00;100037.91;6242868;22;20020;-90
2023/12/20 04:58:16;;;;;;;8.30;2.53;;;;;;;4.16;100.00;100033.53;6215864;22;20065;-90
2023/12/20 05:00:43;;;;;;;8.50;3.13;;;;;;;4.19;100.00;100031.75;6213596;22;20267;-91
2023/12/20 05:03:11;;;;;;;9.63;3.30;;;;;;;4.21;100.00;100024.78;6240453;22;20023;-91
2023/12/20 05:05:39;;;;;;;6.10;3.10;;;;;;;4.13;100.00;100020.47;6241028;22;20045;-89
2023/12/20 05:08:09;;;;;;;5.50;2.70;;;;;;;4.08;100.00;100017.88;6242967;22;20374;-89
2023/12/20 05:10:40;;;;;;;5.77;2.20;;;;;;;4.02;100.00;100019.63;6246724;22;20046;-89
2023/12/20 05:13:07;;;;;;;7.87;2.90;;;;;;;3.97;100.00;100017.06;6216058;22;20020;-91
2023/12/20 05:15:38;;;;;;;6.30;2.40;;;;;;;3.86;100.00;100017.06;6217275;22;20030;-91
2023/12/20 05:18:05;;;;;;;5.93;2.90;;;;;;;3.79;100.00;100012.78;6217019;22;20019;-90
2023/12/20 05:20:32;;;;;;;5.50;2.20;;;;;;;3.75;100.00;100010.16;6241591;22;20019;-90
2023/12/20 05:23:01;;;;;;;6.10;2.53;;;;;;;3.79;100.00;100015.38;6215665;22;20050;-88
2023/12/20 05:25:29;;;;;;;5.33;2.83;;;;;;;3.83;100.00;100013.63;6240655;22;20057;-90
2023/12/20 05:27:56;;;;;;;12.37;3.17;;;;;;;3.65;100.00;100019.78;6218145;22;20020;-91
2023/12/20 05:30:24;;;;;;;10.23;2.87;;;;;;;3.86;100.00;100018.81;6218810;22;20000;-90
2023/12/20 05:32:51;;;;;;;8.93;2.23;;;;;;;3.76;100.00;100012.75;6217793;22;20340;-92
2023/12/20 05:35:19;;;;;;;8.27;3.10;;;;;;;3.86;100.00;100022.31;6217477;22;20023;-92
2023/12/20 05:37:46;;;;;;;16.17;5.30;;;;;;;3.96;100.00;100017.94;6242145;22;20027;-93
2023/12/20 05:40:13;;;;;;;9.37;2.87;;;;;;;3.99;100.00;100009.22;6216057;22;20047;-92
2023/12/20 05:42:41;;;;;;;5.10;2.10;;;;;;;3.97;100.00;100010.97;6217916;22;20020;-89
2023/12/20 05:45:09;;;;;;;8.53;2.70;;;;;;;4.15;100.00;100000.41;6216978;22;20023;-91
2023/12/20 05:47:36;;;;;;;5.93;2.30;;;;;;;4.13;100.00;100010.03;6216342;22;20050;-91
2023/12/20 05:50:04;;;;;;;8.33;2.47;;;;;;;4.16;100.00;100002.16;6237961;22;20019;-89
2023/12/20 05:52:31;;;;;;;8.90;2.97;;;;;;;4.17;100.00;99999.53;6215522;22;20031;-89
2023/12/20 05:55:01;;;;;;;6.90;2.33;;;;;;;4.23;100.00;99988.19;6240865;22;20034;-89
2023/12/20 05:57:28;;;;;;;9.23;2.70;;;;;;;4.23;100.00;99989.03;6219205;22;20019;-90
2023/12/20 05:59:55;;;;;;;7.77;2.50;;;;;;;4.29;100.00;99985.53;6218470;22;20014;-89
2023/12/20 06:02:22;;;;;;;6.40;2.60;;;;;;;4.28;100.00;99978.53;6219102;22;20028;-89
2023/12/20 06:04:49;;;;;;;9.73;3.10;;;;;;;4.29;100.00;99972.47;6243296;22;20019;-89
2023/12/20 06:07:17;;;;;;;6.60;2.47;;;;;;;4.25;100.00;99978.56;6220157;22;20024;-91
2023/12/20 06:09:44;;;;;;;8.47;2.43;;;;;;;4.29;100.00;99982.03;6245432;22;20011;-91
2023/12/20 06:12:11;;;;;;;13.03;3.00;;;;;;;4.36;100.00;99983.72;6218922;22;20024;-88
2023/12/20 06:14:39;;;;;;;7.50;3.07;;;;;;;4.24;100.00;99977.72;6219148;22;20020;-89
2023/12/20 06:17:06;;;;;;;6.87;2.80;;;;;;;4.34;100.00;99964.56;6218994;22;20023;-91
2023/12/20 06:19:33;;;;;;;7.17;2.80;;;;;;;4.30;100.00;99958.50;6218634;22;20019;-91
2023/12/20 06:22:00;;;;;;;6.10;2.53;;;;;;;4.37;100.00;99962.81;6242585;22;20023;-91
2023/12/20 06:24:28;;;;;;;7.50;2.40;;;;;;;4.40;100.00;99954.94;6216122;22;20523;-90
2023/12/20 06:26:55;;;;;;;9.50;3.40;;;;;;;4.44;100.00;99961.00;6217324;22;20024;-90
2023/12/20 06:29:22;;;;;;;6.27;2.60;;;;;;;4.35;100.00;99954.09;6214783;22;20039;-90
2023/12/20 06:31:49;;;;;;;7.17;2.60;;;;;;;4.39;100.00;99965.44;6244172;22;20023;-88
2023/12/20 06:34:17;;;;;;;6.43;2.97;;;;;;;4.37;100.00;99964.53;6220620;22;20019;-90
2023/12/20 06:36:44;;;;;;;9.53;4.43;;;;;;;4.42;100.00;99961.03;6242993;22;20031;-87
2023/12/20 06:39:12;;;;;;;10.30;3.43;;;;;;;4.35;100.00;99967.19;6217392;22;20066;-90
2023/12/20 06:41:40;;;;;;;8.30;2.60;;;;;;;4.40;100.00;99962.78;6216248;22;20054;-89
2023/12/20 06:44:07;;;;;;;8.90;2.70;;;;;;;4.34;100.00;99954.97;6217927;22;20007;-89
2023/12/20 06:46:37;;;;;;;8.53;3.33;;;;;;;4.41;100.00;99947.97;6219410;22;20020;-90
2023/12/20 06:49:04;;;;;;;9.03;2.47;;;;;;;4.34;100.00;99946.28;6245236;22;20016;-88
2023/12/20 06:51:31;;;;;;;8.37;3.30;;;;;;;4.27;100.00;99953.28;6217378;22;20027;-90
2023/12/20 06:54:02;;;;;;;7.97;3.13;;;;;;;4.32;100.00;99946.28;6219459;22;20019;-90
2023/12/20 06:56:29;;;;;;;6.03;2.40;;;;;;;4.36;100.00;99947.13;6217575;22;20023;-88
2023/12/20 06:58:59;;;;;;;8.03;2.93;;;;;;;4.35;100.00;99956.72;6220506;22;20000;-90
2023/12/20 07:01:26;;;;;;;10.30;3.93;;;;;;;4.41;100.00;99959.28;6269811;22;20026;-89
2023/12/20 07:03:54;;;;;;;9.33;3.20;;;;;;;4.43;100.00;99957.53;6220557;22;20020;-91
2023/12/20 07:06:21;;;;;;;7.27;3.87;;;;;;;4.40;100.00;99952.34;6219705;22;20030;-91
2023/12/20 07:08:51;;;;;;;7.30;3.13;;;;;;;4.44;100.00;99959.25;6246261;22;20008;-90
2023/12/20 07:11:19;;;;;;;7.00;2.37;;;;;;;4.46;100.00;99957.53;6216144;22;20034;-88
2023/12/20 07:13:46;;;;;;;9.07;3.60;;;;;;;4.47;100.00;99947.94;6241165;22;20024;-90
2023/12/20 07:16:13;;;;;;;13.47;3.90;;;;;;;4.46;100.00;99944.47;6219446;22;20035;-88
2023/12/20 07:18:40;;;;;;;8.10;2.70;;;;;;;4.48;100.00;99944.44;6219857;22;20345;-90
2023/12/20 07:21:08;;;;;;;8.37;2.90;;;;;;;4.49;100.00;99943.56;6217570;22;20030;-90
2023/12/20 07:23:35;;;;;;;6.60;2.77;;;;;;;4.43;100.00;99957.53;6219652;22;20023;-90
2023/12/20 07:26:02;;;;;;;9.90;2.67;;;;;;;4.51;100.00;99945.28;6221277;22;20008;-88
2023/12/20 07:28:30;;;;;;;9.03;2.77;;;;;;;4.57;100.00;99953.97;6200824;22;20161;-90
2023/12/20 07:31:00;;;;;;;9.30;2.90;;;;;;;4.51;100.00;99952.25;6198943;22;20087;-90
2023/12/20 07:33:29;;;;;;;8.50;4.63;;;;;;;4.52;100.00;99947.00;6199291;22;20027;-89
2023/12/20 07:36:07;;;;;;;10.73;3.30;;;;;;;4.58;100.00;99940.00;6201414;22;20429;-89
2023/12/20 07:38:36;;;;;;;9.03;2.70;;;;;;;4.49;100.00;99943.56;6199507;22;20086;-89
2023/12/20 07:41:10;;;;;;;7.43;3.30;;;;;;;4.56;100.00;99947.88;6200375;22;20023;-89
2023/12/20 07:43:43;;;;;;;7.70;2.90;;;;;;;4.53;100.00;99946.13;6201254;22;20086;-88
2023/12/20 07:46:24;;;;;;;10.30;4.27;;;;;;;4.50;100.00;99935.69;6202299;22;20111;-90
2023/12/20 07:48:57;;;;;;;8.33;7.40;;;;;;;4.57;100.00;99940.88;6201160;22;20103;-89
2023/12/20 07:51:31;;;;;;;9.80;4.40;;;;;;;4.61;100.00;99939.97;6201318;22;20016;-90
2023/12/20 07:54:03;;;;;;;7.32;3.10;;;;;;;4.60;100.00;99951.31;6200426;22;20267;-89
2023/12/20 07:56:36;;;;;;;9.77;3.80;;;;;;;4.58;100.00;99940.00;6199839;22;20090;-89
2023/12/20 07:59:16;;;;;;;5.13;3.33;;;;;;;4.61;100.00;99950.44;6199880;22;20094;-89
2023/12/20 08:02:00;;;;;;;10.37;4.40;;;;;;;4.65;100.00;99946.94;6227501;22;20099;-88
2023/12/20 08:04:32;;;;;;;7.53;3.93;;;;;;;4.60;100.00;99948.69;6225508;22;20098;-89
2023/12/20 08:07:00;;;;;;;9.37;4.13;;;;;;;4.63;100.00;99946.94;6248461;22;20095;-89
2023/12/20 08:09:29;;;;;;;15.47;5.60;;;;;;;4.67;100.00;99939.94;6198795;22;20094;-90
2023/12/20 08:11:59;;;;;;;4.90;2.90;;;;;;;4.66;100.00;99946.03;6199727;22;20100;-90
2023/12/20 08:14:27;;;;;;;8.87;3.27;;;;;;;4.70;100.00;99937.28;6198880;22;20028;-88
2023/12/20 08:16:56;;;;;;;9.67;4.33;;;;;;;4.67;100.00;99934.69;6198850;22;20094;-89
2023/12/20 08:19:31;;;;;;;6.37;3.00;;;;;;;4.70;100.00;99934.66;6201018;22;20095;-90
2023/12/20 08:22:00;;;;;;;11.57;4.77;;;;;;;4.70;100.00;99934.66;6198818;22;20511;-89
2023/12/20 08:24:28;;;;;;;9.60;5.53;;;;;;;4.69;100.00;99936.41;6198737;22;20086;-89
2023/12/20 08:26:57;;;;;;;5.33;4.50;;;;;;;4.71;100.00;99939.91;6223681;22;20138;-89
2023/12/20 08:29:24;;;;;;;8.87;4.03;;;;;;;4.67;100.00;99932.94;6223780;22;20079;-91
2023/12/20 08:31:53;;;;;;;7.37;3.50;;;;;;;4.68;100.00;99925.97;6199380;22;20091;-88
2023/12/20 08:34:21;;;;;;;11.40;4.23;;;;;;;4.69;100.00;99923.31;6199478;22;20122;-89
2023/12/20 08:36:51;;;;;;;10.67;4.67;;;;;;;4.67;100.00;99905.91;6224293;22;20523;-91
2023/12/20 08:39:18;;;;;;;6.73;3.90;;;;;;;4.61;100.00;99919.91;6224892;22;20075;-90
2023/12/20 08:41:46;;;;;;;12.00;6.33;;;;;;;4.68;100.00;99911.13;6224207;22;20086;-88
2023/12/20 08:44:13;;;;;;;9.53;3.70;;;;;;;4.76;100.00;99911.94;6200078;22;20087;-88
2023/12/20 08:46:40;;;;;;;14.77;5.03;;;;;;;4.73;100.00;99914.59;6224410;22;20095;-87
2023/12/20 08:49:09;;;;;;;11.37;3.93;;;;;;;4.77;100.00;99915.41;6225237;22;20094;-89
2023/12/20 08:51:40;;;;;;;11.47;4.27;;;;;;;4.80;100.00;99902.31;6200562;22;20114;-91
2023/12/20 08:54:10;;;;;;;8.77;3.63;;;;;;;4.80;100.00;99908.41;6201107;22;20094;-88
2023/12/20 08:56:37;;;;;;;7.93;4.00;;;;;;;4.84;100.00;99909.25;6200021;22;20090;-89
2023/12/20 08:59:07;;;;;;;9.73;3.40;;;;;;;4.82;100.00;99902.31;6200247;22;20393;-89
2023/12/20 09:01:37;;;;;;;10.93;3.93;;;;;;;4.83;100.00;99898.81;6201289;22;20104;-89
2023/12/20 09:04:06;;;;;;;8.77;3.93;;;;;;;4.84;100.00;99914.47;6199763;22;20467;-88
2023/12/20 09:06:37;;;;;;;8.60;3.50;;;;;;;4.81;100.00;99904.06;6200020;22;20156;-88
2023/12/20 09:09:04;;;;;;;11.60;3.67;;;;;;;4.83;100.00;99901.41;6200059;22;20086;-88
2023/12/20 09:11:32;;;;;;;10.80;3.80;;;;;;;4.80;100.00;99899.69;6199799;22;20535;-89
2023/12/20 09:13:59;;;;;;;9.33;5.60;;;;;;;4.85;100.00;99913.59;6199817;22;20338;-89
2023/12/20 09:16:27;;;;;;;14.30;7.13;;;;;;;4.94;100.00;99907.41;6199778;22;20558;-89
2023/12/20 09:18:54;;;;;;;15.47;5.37;;;;;;;4.95;100.00;99912.63;6224486;22;20153;-88
2023/12/20 09:21:21;;;;;;;8.27;4.43;;;;;;;4.92;100.00;99903.94;6200409;22;20090;-90
2023/12/20 09:23:49;;;;;;;9.43;4.30;;;;;;;4.98;100.00;99899.53;6224328;22;20020;-90
2023/12/20 09:26:16;;;;;;;9.77;4.10;;;;;;;4.93;100.00;99900.44;6200256;22;20137;-87
2023/12/20 09:28:44;;;;;;;9.30;3.50;;;;;;;4.97;100.00;99900.41;6201958;22;20106;-89
2023/12/20 09:31:11;;;;;;;8.33;3.53;;;;;;;4.98;100.00;99894.28;6201727;22;20095;-88
2023/12/20 09:33:38;;;;;;;10.43;3.80;;;;;;;4.97;100.00;99892.56;6226853;22;20084;-88
2023/12/20 09:36:06;;;;;;;13.00;3.50;;;;;;;4.92;100.00;99883.88;6203021;22;20022;-87
2023/12/20 09:38:33;;;;;;;7.67;3.53;;;;;;;5.05;100.00;99887.25;6228023;22;20392;-87
2023/12/20 09:41:03;;;;;;;8.07;3.03;;;;;;;5.07;100.00;99883.72;6203108;22;20083;-89
2023/12/20 09:43:31;;;;;;;12.47;4.37;;;;;;;5.07;100.00;99882.84;6228815;22;20416;-88
2023/12/20 09:46:02;;;;;;;7.60;3.40;;;;;;;5.08;100.00;99879.34;6227651;22;20100;-90
2023/12/20 09:48:30;;;;;;;9.93;3.43;;;;;;;5.08;100.00;99887.19;6202585;22;20118;-89
2023/12/20 09:50:57;;;;;;;7.47;3.93;;;;;;;5.12;100.00;99882.78;6202256;22;20103;-88
2023/12/20 09:53:29;;;;;;;7.00;3.00;;;;;;;5.15;100.00;99881.03;6201968;22;20030;-88
2023/12/20 09:56:02;;;;;;;10.13;4.33;;;;;;;5.14;100.00;99865.34;6209922;22;20054;-90
2023/12/20 09:58:29;;;;;;;14.40;3.30;;;;;;;5.11;100.00;99871.44;6205541;22;20099;-90
2023/12/20 10:00:56;;;;;;;8.43;3.27;;;;;;;5.20;100.00;99879.19;6206600;22;20341;-89
2023/12/20 10:03:26;;;;;;;8.17;3.50;;;;;;;5.19;100.00;99877.47;6235383;22;20104;-88
2023/12/20 10:05:56;;;;;;;12.03;4.53;;;;;;;5.17;100.00;99865.28;6211873;22;20046;-91
2023/12/20 10:08:24;;;;;;;9.63;4.10;;;;;;;5.14;100.00;99865.34;6238113;22;20070;-91
2023/12/20 10:10:51;;;;;;;11.67;4.00;;;;;;;5.18;100.00;99860.03;6211607;22;20042;-89
2023/12/20 10:13:19;;;;;;;6.67;3.70;;;;;;;5.21;100.00;99846.03;6236188;22;20039;-89
2023/12/20 10:15:46;;;;;;;7.83;3.07;;;;;;;5.27;100.00;99840.72;6208875;22;20039;-90
2023/12/20 10:18:13;;;;;;;9.07;4.00;;;;;;;5.19;100.00;99824.22;6209582;22;20055;-90
2023/12/20 10:20:42;;;;;;;8.90;3.43;;;;;;;5.22;100.00;99824.22;6208391;22;20047;-90
2023/12/20 10:23:10;;;;;;;8.23;3.03;;;;;;;5.30;100.00;99822.38;6210725;22;20047;-90
2023/12/20 10:25:38;;;;;;;10.67;3.10;;;;;;;5.27;100.00;99810.16;6209993;22;20149;-90
2023/12/20 10:28:27;;;;;;;15.47;3.83;;;;;;;5.26;100.00;99808.44;6208546;22;20050;-90
2023/12/20 10:30:58;;;;;;;8.33;3.53;;;;;;;5.22;100.00;99804.13;6231675;22;20016;-90
2023/12/20 10:33:27;;;;;;;9.53;3.27;;;;;;;5.25;100.00;99808.47;6208402;22;20055;-87
2023/12/20 10:35:55;;;;;;;11.37;3.70;;;;;;;5.31;100.00;99787.44;6206632;22;20043;-89
2023/12/20 10:38:23;;;;;;;7.50;3.20;;;;;;;5.34;100.00;99795.25;6206230;22;20275;-89
2023/12/20 10:40:54;;;;;;;9.57;2.93;;;;;;;5.43;100.00;99797.72;6229319;22;20068;-90
2023/12/20 10:43:22;;;;;;;6.83;3.20;;;;;;;5.43;100.00;99795.13;6204479;22;20106;-89
2023/12/20 10:45:50;;;;;;;10.83;3.70;;;;;;;5.44;100.00;99791.59;6202341;22;20082;-89
2023/12/20 10:48:17;;;;;;;8.47;2.97;;;;;;;5.43;100.00;99784.63;6224531;22;20133;-88
2023/12/20 10:50:45;;;;;;;6.00;2.83;;;;;;;5.41;100.00;99788.16;6201266;22;20075;-90
2023/12/20 10:53:13;;;;;;;9.87;3.83;;;;;;;5.48;100.00;99769.75;6230102;22;20079;-88
2023/12/20 10:55:40;;;;;;;10.27;3.60;;;;;;;5.46;100.00;99766.25;6204120;22;20058;-87
2023/12/20 10:58:08;;;;;;;11.53;3.67;;;;;;;5.43;100.00;99765.44;6205598;22;20066;-88
2023/12/20 11:00:43;;;;;;;6.80;3.43;;;;;;;5.32;100.00;99757.72;6203558;22;20075;-89
2023/12/20 11:03:12;;;;;;;6.80;2.80;;;;;;;5.36;100.00;99747.19;6229038;22;20122;-90
2023/12/20 11:05:53;;;;;;;9.50;3.47;;;;;;;5.44;100.00;99746.22;6199718;22;20106;-89
2023/12/20 11:08:28;;;;;;;10.27;3.93;;;;;;;5.41;100.00;99743.66;6218661;22;20031;-91
2023/12/20 11:11:06;;;;;;;9.00;3.77;;;;;;;5.43;100.00;99734.88;6215822;22;20020;-90
2023/12/20 11:13:37;;;;;;;8.93;2.90;;;;;;;5.50;100.00;99733.03;6217984;22;20016;-90
2023/12/20 11:16:05;;;;;;;7.90;3.50;;;;;;;5.55;100.00;99721.59;6218058;22;20058;-92
2023/12/20 11:18:33;;;;;;;6.73;3.20;;;;;;;5.64;100.00;99718.84;6216835;22;20027;-91
2023/12/20 11:21:03;;;;;;;15.13;5.07;;;;;;;5.63;100.00;99719.72;6205671;22;20067;-89
2023/12/20 11:23:33;;;;;;;12.57;6.03;;;;;;;5.70;100.00;99698.66;6209477;22;20055;-91
2023/12/20 11:26:01;;;;;;;10.17;3.67;;;;;;;5.74;100.00;99698.59;6202264;22;20107;-90
2023/12/20 11:28:32;;;;;;;9.60;3.40;;;;;;;5.76;100.00;99688.06;6206462;22;20054;-91
2023/12/20 11:31:01;;;;;;;7.33;2.90;;;;;;;5.72;100.00;99689.00;6228006;22;20039;-92
2023/12/20 11:33:36;;;;;;;8.63;3.50;;;;;;;5.71;100.00;99672.41;6226441;22;20530;-90
2023/12/20 11:36:03;;;;;;;22.17;4.50;;;;;;;5.73;100.00;99661.94;6199072;22;20463;-91